Yeager Airport
KCRW : now visible

Airfield :











YOU CAN JOIN US ON...

 
LOGIN :

Register | Disclaimer

   EN    FR    IT 

 









Legend :    VFR   Marginal VFR   IFR   Intensive IFR   Very Intensive IFR
Visi :
Ceiling :
>= 8 km
>= 3000ft
5 to 8 km
1000 to 3000 ft
1500m to 5 km
500 to 1000 ft
800 to 1500m
200 to 500 ft
< 800m
< 200 ft
Symbols :   Thunderstorms  Fog  Heavy snow  Heavy precipitations  Wind > 20 kt






- Airport Elevation : 981 ft
- IATA code : CRW


KCRW - Yeager

CURRENT METAR :
  • 291254Z 00000KT 10SM OVC026 01/M02 A3013 RMK AO2 SNE32 SLP210 P0000 T00061022

EXPIRED METARs :
  • 291154Z 00000KT 9SM -SN OVC025 01/M02 A3011 RMK AO2 SLP203 P0000 60000 T00061022 10017 20006 53009
  • 291054Z 00000KT 9SM -SN OVC024 01/M02 A3010 RMK AO2 SLP199 P0000 T00061022

TAF KCRW
Valid from the 29 at 12:00 until the 30 at 12:00 UTC


291120Z 2912/3012 00000KT P6SM OVC025
TEMPO 2912/2913 -SN
FM292300 00000KT P6SM SCT030
FM300000 00000KT P6SM SCT035



MET'MAP, your aeronautical weather chart ! - Copyright ORBIFLY December 2007 - Disclaimer

ORBIFLY MET'MAP TEAM :

Programming & Development : Alexandra Zaïnal
Concept & original design : Baudouin d'Aumeries
Assistance for programming : Marc-Olivier Méhu
Technical & hardware support : Manuel Goepfert

Contact : metmap@orbifly.com




SOURCES & CREDITS :

   NOAA       Earth
Advisory